»·PEaware :: N55NT KSNA-KMIT

N55NT :: KSNA-KMIT

FLIGHT INFORMATION

Flight Status: Arrived
Operator: Privately registered:
United States
More flights under this callsign
Pilot: Craig H. (6968)
Aircraft: BEECH AIRCRAFT BARON
(BE58)
More flights by this aircraft type
Origin: KSNA John Wayne-Orange Co
United States
Destination: KMIT Shafter-Minter
United States
More flights between these airports :: More routes between these airports
Route: +ANAHM1 LHS
File this flight plan on PilotEdge
Remarks:
Altitude:
(Current/Filed)
14,000ft
Speed:
(Current/Filed)
185kts
Departed: 16-Jul-20 03:47 PM
Arrived: 16-Jul-20 04:40 PM
Distance/Time
Traveled:
128nm/0:53
Distance/Time
To Go:
Arrived

Flight Plot

Page will automatically refresh every two minutes.

Flight plan parsing failed; only flown route is shown


Map Options




Map Legend


Flown Route
Filed Route
Departure Airport
Arrival Airport
Navaid (VOR, NDB)
Fix

Horizontal Profiles

Position Reports

Time Latitude Longitude Heading Altitude Ground
Speed
16-Jul-20 15:31 33.666051 -117.873032 41 59ft 0kts
16-Jul-20 15:32 33.666051 -117.873032 41 59ft 0kts
16-Jul-20 15:33 33.666051 -117.873032 41 59ft 0kts
16-Jul-20 15:34 33.666051 -117.873032 41 59ft 0kts
16-Jul-20 15:35 33.666051 -117.873032 41 59ft 0kts
16-Jul-20 15:36 33.666051 -117.873032 41 59ft 0kts
16-Jul-20 15:37 33.666051 -117.873032 41 59ft 0kts
16-Jul-20 15:38 33.666051 -117.873032 41 59ft 0kts
16-Jul-20 15:39 33.666051 -117.873032 41 59ft 0kts
16-Jul-20 15:40 33.667455 -117.872631 38 59ft 11kts
16-Jul-20 15:41 33.670383 -117.869655 39 59ft 12kts
16-Jul-20 15:42 33.673550 -117.867176 341 59ft 9kts
16-Jul-20 15:43 33.676845 -117.865381 26 59ft 16kts
16-Jul-20 15:44 33.679961 -117.863622 296 59ft 0kts
16-Jul-20 15:45 33.679495 -117.864555 208 59ft 38kts
16-Jul-20 15:46 33.656478 -117.882313 231 795ft 120kts
16-Jul-20 15:47 33.634901 -117.918154 233 1908ft 139kts
16-Jul-20 15:48 33.613513 -117.954440 246 3034ft 129kts
16-Jul-20 15:49 33.633305 -117.984773 337 3998ft 140kts
16-Jul-20 15:50 33.670246 -118.002436 339 5005ft 144kts
16-Jul-20 15:51 33.708402 -118.020211 340 5869ft 152kts
16-Jul-20 15:52 33.749065 -118.039027 340 6681ft 160kts
16-Jul-20 15:53 33.785957 -118.027081 63 7486ft 149kts
16-Jul-20 15:54 33.801672 -117.981266 73 8281ft 147kts
16-Jul-20 15:55 33.814156 -117.935843 74 9083ft 141kts
16-Jul-20 15:56 33.825840 -117.891200 75 9785ft 138kts
16-Jul-20 15:57 33.837368 -117.846521 75 10386ft 141kts
16-Jul-20 15:58 33.849084 -117.801551 68 10981ft 141kts
16-Jul-20 15:59 33.887118 -117.784782 3 11385ft 155kts
16-Jul-20 16:00 33.930180 -117.784400 0 11871ft 155kts
16-Jul-20 16:01 33.975766 -117.785077 359 11993ft 176kts
16-Jul-20 16:03 34.014293 -117.818105 295 12007ft 186kts
16-Jul-20 16:04 34.035268 -117.876968 289 12012ft 195kts
16-Jul-20 16:05 34.054620 -117.938923 288 12008ft 197kts
16-Jul-20 16:06 34.073844 -118.001248 288 12006ft 198kts
16-Jul-20 16:07 34.093009 -118.063862 288 11996ft 199kts
16-Jul-20 16:08 34.112263 -118.126462 288 11997ft 198kts
16-Jul-20 16:09 34.131412 -118.189091 288 11998ft 199kts
16-Jul-20 16:10 34.150891 -118.251482 297 12001ft 199kts
16-Jul-20 16:11 34.194882 -118.291135 332 12003ft 200kts
16-Jul-20 16:12 34.245203 -118.321309 333 11994ft 202kts
16-Jul-20 16:13 34.295701 -118.350717 334 12011ft 200kts
16-Jul-20 16:14 34.346012 -118.379994 334 12036ft 200kts
16-Jul-20 16:15 34.396447 -118.409400 335 12044ft 202kts
16-Jul-20 16:16 34.447278 -118.439029 335 12041ft 203kts
16-Jul-20 16:17 34.498221 -118.468770 335 12038ft 203kts
16-Jul-20 16:18 34.549419 -118.498715 334 12110ft 203kts
16-Jul-20 16:19 34.600586 -118.528689 334 12147ft 205kts
16-Jul-20 16:20 34.652107 -118.558920 334 12206ft 205kts
16-Jul-20 16:21 34.702585 -118.591659 329 12263ft 206kts
16-Jul-20 16:22 34.751825 -118.627871 329 12285ft 207kts
16-Jul-20 16:22 34.791831 -118.657431 328 12282ft 205kts
16-Jul-20 16:24 34.848104 -118.699092 328 12283ft 202kts
16-Jul-20 16:25 34.896031 -118.734622 328 12283ft 201kts
16-Jul-20 16:25 34.935819 -118.764141 328 12281ft 201kts
16-Jul-20 16:26 34.983707 -118.799742 328 12164ft 208kts
16-Jul-20 16:28 35.045655 -118.845843 328 10952ft 232kts
16-Jul-20 16:28 35.090819 -118.879491 328 9954ft 226kts
16-Jul-20 16:29 35.143529 -118.918798 328 8749ft 220kts
16-Jul-20 16:30 35.195177 -118.957453 328 7545ft 216kts
16-Jul-20 16:31 35.244237 -118.994132 328 6975ft 194kts
16-Jul-20 16:32 35.280972 -119.041037 303 6381ft 209kts
16-Jul-20 16:33 35.314269 -119.101752 302 5191ft 214kts
16-Jul-20 16:34 35.351227 -119.157175 312 3978ft 203kts
16-Jul-20 16:35 35.391218 -119.197254 332 3457ft 164kts
16-Jul-20 16:36 35.435621 -119.208642 15 2533ft 166kts
16-Jul-20 16:37 35.467500 -119.185910 24 1645ft 121kts
16-Jul-20 16:38 35.495851 -119.182238 317 766ft 97kts
16-Jul-20 16:39 35.507891 -119.196948 24 423ft 14kts
16-Jul-20 16:40 35.506878 -119.194160 135 423ft 12kts
16-Jul-20 16:41 35.504554 -119.191120 132 423ft 12kts
16-Jul-20 16:42 35.503048 -119.187740 92 423ft 11kts

Navigation Log

Ident Type
Flight plan parsing failed, navigation log unavailable